Time;durP1;ratioP1;P1;durP2;ratioP2;P2;SDS_P1;SDS_P2;PMS_P1;PMS_P2;Temp;Humidity;BMP_temperature;BMP_pressure;BME280_temperature;BME280_humidity;BME280_pressure;Samples;Min_cycle;Max_cycle;Signal;HPM_P1;HPM_P2
2021/05/16 00:00:34;;;;;;;10.57;9.67;;;9.90;99.90;;;;;;5029157;28;20608;-58
2021/05/16 00:03:04;;;;;;;11.80;10.60;;;9.80;99.90;;;;;;5029723;28;20252;-59
2021/05/16 00:05:33;;;;;;;11.97;10.87;;;9.80;99.90;;;;;;5029282;28;20248;-57
2021/05/16 00:08:01;;;;;;;11.37;10.37;;;9.70;99.90;;;;;;5029544;28;20698;-58
2021/05/16 00:10:29;;;;;;;11.47;10.47;;;9.70;99.90;;;;;;5029153;28;20663;-57
2021/05/16 00:12:59;;;;;;;11.73;10.60;;;9.70;99.90;;;;;;5029588;28;20631;-59
2021/05/16 00:15:30;;;;;;;11.33;10.23;;;9.70;99.90;;;;;;5028843;28;20289;-57
2021/05/16 00:17:58;;;;;;;12.37;11.27;;;9.80;99.90;;;;;;5035828;28;20295;-57
2021/05/16 00:20:30;;;;;;;11.73;10.73;;;9.70;99.90;;;;;;5040329;28;20552;-54
2021/05/16 00:22:58;;;;;;;11.53;10.53;;;9.70;99.90;;;;;;5011431;28;20262;-58
2021/05/16 00:25:27;;;;;;;11.63;10.63;;;9.60;99.90;;;;;;5029330;28;20336;-55
2021/05/16 00:27:56;;;;;;;11.90;10.80;;;9.60;99.90;;;;;;5026141;28;20244;-57
2021/05/16 00:30:27;;;;;;;11.97;10.87;;;9.60;99.90;;;;;;5028590;28;20340;-58
2021/05/16 00:32:57;;;;;;;12.30;11.20;;;9.60;99.90;;;;;;5026281;28;20231;-57
2021/05/16 00:35:27;;;;;;;12.33;11.23;;;9.60;99.90;;;;;;5026220;28;20329;-58
2021/05/16 00:37:56;;;;;;;12.93;11.43;;;9.60;99.90;;;;;;5028989;28;20290;-56
2021/05/16 00:40:25;;;;;;;13.40;12.20;;;9.60;99.90;;;;;;5028142;28;20242;-58
2021/05/16 00:42:52;;;;;;;12.73;11.60;;;9.60;99.90;;;;;;5028970;28;20691;-57
2021/05/16 00:45:22;;;;;;;13.07;11.87;;;9.60;99.90;;;;;;5028992;28;20774;-56
2021/05/16 00:47:53;;;;;;;12.30;11.20;;;9.50;99.90;;;;;;5028748;28;20237;-58
2021/05/16 00:50:24;;;;;;;12.40;11.30;;;9.50;99.90;;;;;;5020151;28;676374;-56
2021/05/16 00:52:52;;;;;;;12.90;11.07;;;9.60;99.90;;;;;;5044659;28;20696;-56
2021/05/16 00:55:21;;;;;;;13.03;11.70;;;9.50;99.90;;;;;;5029864;28;20623;-55
2021/05/16 00:57:50;;;;;;;12.57;11.47;;;9.50;99.90;;;;;;5028114;28;20232;-58
2021/05/16 01:00:24;;;;;;;12.13;11.03;;;9.40;99.90;;;;;;5027829;28;20245;-56
2021/05/16 01:02:56;;;;;;;12.37;11.27;;;9.40;99.90;;;;;;5028672;28;20224;-54
2021/05/16 01:05:27;;;;;;;12.43;11.27;;;9.40;99.90;;;;;;5028046;28;20294;-58
2021/05/16 01:07:55;;;;;;;12.27;10.97;;;9.40;99.90;;;;;;5029786;28;20234;-58
2021/05/16 01:10:23;;;;;;;11.43;10.43;;;9.40;99.90;;;;;;5027861;28;20963;-55
2021/05/16 01:12:54;;;;;;;12.13;11.03;;;9.40;99.90;;;;;;5044767;28;20245;-57
2021/05/16 01:15:27;;;;;;;12.00;10.90;;;9.40;99.90;;;;;;5028065;28;20235;-57
2021/05/16 01:17:58;;;;;;;12.87;11.67;;;9.40;99.90;;;;;;5028927;28;20264;-55
2021/05/16 01:20:31;;;;;;;12.63;11.43;;;9.40;99.90;;;;;;5028829;28;20239;-57
2021/05/16 01:23:02;;;;;;;12.37;11.17;;;9.40;99.90;;;;;;5044256;28;20296;-56
2021/05/16 01:25:34;;;;;;;11.00;10.00;;;9.30;99.90;;;;;;5029302;28;20280;-57
2021/05/16 01:28:02;;;;;;;12.10;11.00;;;9.30;99.90;;;;;;5026297;28;20245;-58
2021/05/16 01:30:30;;;;;;;13.30;12.00;;;9.30;99.90;;;;;;5040710;28;20600;-57
2021/05/16 01:32:58;;;;;;;12.03;10.93;;;9.30;99.90;;;;;;5025095;28;20427;-57
2021/05/16 01:35:26;;;;;;;12.10;11.00;;;9.30;99.90;;;;;;5032670;28;20232;-58
2021/05/16 01:37:54;;;;;;;12.37;11.27;;;9.30;99.90;;;;;;5026826;28;20314;-57
2021/05/16 01:40:25;;;;;;;12.13;11.03;;;9.30;99.90;;;;;;5041915;28;20243;-57
2021/05/16 01:42:58;;;;;;;12.83;11.63;;;9.20;99.90;;;;;;5042294;28;20319;-57
2021/05/16 01:45:29;;;;;;;12.47;11.27;;;9.30;99.90;;;;;;5026527;28;20455;-57
2021/05/16 01:47:58;;;;;;;11.97;10.87;;;9.30;99.90;;;;;;5027094;28;20781;-57
2021/05/16 01:50:30;;;;;;;12.30;11.17;;;9.30;99.90;;;;;;5027862;28;20276;-58
2021/05/16 01:53:00;;;;;;;11.53;10.43;;;9.40;99.90;;;;;;5028282;28;20299;-55
2021/05/16 01:55:29;;;;;;;11.60;10.50;;;9.40;99.90;;;;;;5028729;28;20240;-58
2021/05/16 01:58:04;;;;;;;11.82;10.81;;;9.50;99.90;;;;;;2889588;28;10003346;-54
2021/05/16 02:00:34;;;;;;;12.23;11.13;;;9.50;99.90;;;;;;2946535;28;10002166;-57
2021/05/16 02:03:08;;;;;;;12.13;11.13;;;9.40;99.90;;;;;;5044167;28;20919;-58
2021/05/16 02:05:42;;;;;;;12.30;11.13;;;9.30;99.90;;;;;;5044251;28;20315;-57
2021/05/16 02:08:11;;;;;;;11.27;10.27;;;9.20;99.90;;;;;;5043824;28;20241;-56
2021/05/16 02:10:41;;;;;;;12.23;11.13;;;9.10;99.90;;;;;;5026085;28;20240;-57
2021/05/16 02:13:11;;;;;;;11.70;10.70;;;9.10;99.90;;;;;;5044034;28;20612;-58
2021/05/16 02:15:44;;;;;;;12.10;11.00;;;9.10;99.90;;;;;;5029347;28;20843;-57
2021/05/16 02:18:17;;;;;;;12.20;11.10;;;9.10;99.90;;;;;;5043168;28;20239;-57
2021/05/16 02:20:47;;;;;;;11.83;10.73;;;9.00;99.90;;;;;;5026304;28;20632;-58
2021/05/16 02:23:16;;;;;;;12.30;11.10;;;9.10;99.90;;;;;;5043583;28;20244;-57
2021/05/16 02:25:46;;;;;;;12.70;11.60;;;9.00;99.90;;;;;;5042962;28;20234;-58
2021/05/16 02:28:20;;;;;;;12.27;11.07;;;9.00;99.90;;;;;;5041819;28;20724;-59
2021/05/16 02:30:51;;;;;;;12.67;11.47;;;9.00;99.90;;;;;;5042493;28;20239;-57
2021/05/16 02:33:20;;;;;;;12.73;11.53;;;9.00;99.90;;;;;;5043144;28;20259;-58
2021/05/16 02:35:48;;;;;;;12.70;11.53;;;9.00;99.90;;;;;;5028376;28;20696;-56
2021/05/16 02:38:16;;;;;;;12.60;11.40;;;9.00;99.90;;;;;;5043253;28;20235;-54
2021/05/16 02:40:44;;;;;;;12.73;11.60;;;9.00;99.90;;;;;;5027436;28;20323;-57
2021/05/16 02:43:13;;;;;;;13.17;12.00;;;9.00;99.90;;;;;;5043427;28;20287;-57
2021/05/16 02:45:41;;;;;;;13.30;12.00;;;9.00;99.90;;;;;;5043183;28;20282;-56
2021/05/16 02:48:15;;;;;;;13.20;12.00;;;9.00;99.90;;;;;;5042592;28;20236;-58
2021/05/16 02:50:43;;;;;;;13.37;12.07;;;8.90;99.90;;;;;;5026182;28;20324;-58
2021/05/16 02:53:13;;;;;;;12.67;11.47;;;8.90;99.90;;;;;;5026766;28;20241;-56
2021/05/16 02:55:51;;;;;;;13.60;12.37;;;8.90;99.90;;;;;;5026178;28;20235;-55
2021/05/16 02:58:21;;;;;;;13.60;12.30;;;9.00;99.90;;;;;;5042929;28;20290;-54
2021/05/16 03:00:54;;;;;;;13.30;12.03;;;8.90;99.90;;;;;;5042367;28;20826;-57
2021/05/16 03:03:22;;;;;;;13.43;11.90;;;8.90;99.90;;;;;;5043187;28;20229;-56
2021/05/16 03:05:55;;;;;;;13.53;12.33;;;9.00;99.90;;;;;;5042871;28;20225;-56
2021/05/16 03:08:25;;;;;;;12.53;11.43;;;8.90;99.90;;;;;;5027208;28;20345;-55
2021/05/16 03:10:53;;;;;;;13.67;12.27;;;9.00;99.90;;;;;;5042426;28;20236;-54
2021/05/16 03:13:22;;;;;;;13.37;12.07;;;8.90;99.90;;;;;;5042666;28;20319;-57
2021/05/16 03:15:52;;;;;;;12.50;11.20;;;8.80;99.90;;;;;;5037448;28;20945;-55
2021/05/16 03:18:21;;;;;;;13.07;11.77;;;8.80;99.90;;;;;;5042511;28;20406;-57
2021/05/16 03:20:49;;;;;;;12.37;11.23;;;8.80;99.90;;;;;;5025158;28;20692;-58
2021/05/16 03:23:18;;;;;;;12.37;11.20;;;8.80;99.90;;;;;;5042399;28;20236;-57
2021/05/16 03:25:46;;;;;;;12.40;11.20;;;8.90;99.90;;;;;;5023351;28;20601;-57
2021/05/16 03:28:14;;;;;;;13.17;11.97;;;8.90;99.90;;;;;;5026999;28;20620;-57
2021/05/16 03:30:43;;;;;;;13.95;12.68;;;8.90;99.90;;;;;;5026900;28;20433;-57
2021/05/16 03:33:11;;;;;;;13.53;12.23;;;8.90;99.90;;;;;;5027309;28;20315;-58
2021/05/16 03:35:39;;;;;;;13.53;12.13;;;8.90;99.90;;;;;;5027452;28;20592;-58
2021/05/16 03:38:07;;;;;;;12.27;11.17;;;9.00;99.90;;;;;;5027304;28;20704;-57
2021/05/16 03:40:35;;;;;;;13.97;12.67;;;9.00;99.90;;;;;;5026410;28;20232;-58
2021/05/16 03:43:03;;;;;;;13.17;11.97;;;9.00;99.90;;;;;;5027360;28;20336;-58
2021/05/16 03:45:31;;;;;;;12.83;11.70;;;8.90;99.90;;;;;;5026508;28;20229;-54
2021/05/16 03:48:00;;;;;;;13.30;11.93;;;8.80;99.90;;;;;;5025223;28;20240;-57
2021/05/16 03:50:28;;;;;;;12.07;10.97;;;8.90;99.90;;;;;;5025633;28;20248;-57
2021/05/16 03:52:56;;;;;;;12.43;11.23;;;8.90;99.90;;;;;;5026783;28;20252;-58
2021/05/16 03:55:24;;;;;;;12.23;10.73;;;9.00;99.90;;;;;;5022016;28;20240;-56
2021/05/16 03:57:52;;;;;;;11.57;10.47;;;9.00;99.90;;;;;;5040515;28;20693;-57
2021/05/16 04:00:24;;;;;;;12.67;11.37;;;9.10;99.90;;;;;;5024777;28;20252;-58
2021/05/16 04:02:51;;;;;;;12.10;10.90;;;9.10;99.90;;;;;;5026073;28;20328;-57
2021/05/16 04:05:20;;;;;;;12.20;11.00;;;9.10;99.90;;;;;;5025526;28;20742;-58
2021/05/16 04:07:49;;;;;;;12.30;11.20;;;9.20;99.90;;;;;;5025618;28;20243;-57
2021/05/16 04:10:17;;;;;;;12.07;10.97;;;9.20;99.90;;;;;;5024620;28;20237;-58
2021/05/16 04:12:45;;;;;;;10.93;9.93;;;9.20;99.90;;;;;;5025125;28;20248;-55
2021/05/16 04:15:12;;;;;;;12.43;11.23;;;9.30;99.90;;;;;;5025621;28;20647;-58
2021/05/16 04:17:41;;;;;;;11.57;10.47;;;9.30;99.90;;;;;;5028320;28;20319;-58
2021/05/16 04:20:10;;;;;;;11.47;10.37;;;9.30;99.90;;;;;;5026870;28;20254;-55
2021/05/16 04:22:39;;;;;;;12.30;11.10;;;9.30;99.90;;;;;;5028944;28;20267;-57
2021/05/16 04:25:08;;;;;;;11.37;10.30;;;9.30;99.90;;;;;;5026815;28;20642;-55
2021/05/16 04:27:36;;;;;;;11.13;10.03;;;9.40;99.90;;;;;;5028614;28;20316;-58
2021/05/16 04:30:06;;;;;;;11.10;9.93;;;9.30;99.90;;;;;;5028643;28;20255;-58
2021/05/16 04:32:34;;;;;;;12.13;10.80;;;9.40;99.90;;;;;;5029041;28;20244;-58
2021/05/16 04:35:02;;;;;;;11.47;10.37;;;9.40;99.90;;;;;;5029863;28;20238;-58
2021/05/16 04:37:30;;;;;;;10.80;9.80;;;9.40;99.90;;;;;;5029862;28;20233;-58
2021/05/16 04:39:59;;;;;;;10.40;9.50;;;9.40;99.90;;;;;;5028973;28;20642;-57
2021/05/16 04:42:27;;;;;;;10.60;9.53;;;9.40;99.90;;;;;;5021727;28;20245;-57
2021/05/16 04:44:54;;;;;;;10.27;9.37;;;9.50;99.90;;;;;;5029907;28;20313;-58
2021/05/16 04:47:22;;;;;;;10.57;9.57;;;9.50;99.90;;;;;;5030102;28;20579;-58
2021/05/16 04:49:50;;;;;;;9.97;8.97;;;9.50;99.90;;;;;;5029638;28;20245;-58
2021/05/16 04:52:18;;;;;;;11.23;10.13;;;9.50;99.90;;;;;;5024533;28;20249;-58
2021/05/16 04:54:46;;;;;;;10.03;9.10;;;9.60;99.90;;;;;;5010115;28;20237;-56
2021/05/16 04:57:14;;;;;;;9.43;8.63;;;9.60;99.90;;;;;;5010174;28;20234;-57
2021/05/16 04:59:42;;;;;;;10.20;9.30;;;9.70;99.90;;;;;;5008810;28;20235;-58
2021/05/16 05:02:10;;;;;;;9.90;9.00;;;9.70;99.90;;;;;;5008131;28;20268;-58
2021/05/16 05:04:38;;;;;;;10.63;9.50;;;9.70;99.90;;;;;;5008190;28;20253;-58
2021/05/16 05:07:06;;;;;;;9.43;8.63;;;9.80;99.90;;;;;;5007932;28;20262;-58
2021/05/16 05:09:34;;;;;;;9.70;8.80;;;9.80;99.90;;;;;;5007787;28;20790;-59
2021/05/16 05:12:03;;;;;;;9.80;8.90;;;9.80;99.90;;;;;;5008217;28;20696;-58
2021/05/16 05:14:32;;;;;;;9.50;8.60;;;9.90;99.90;;;;;;5008437;28;20264;-57
2021/05/16 05:16:59;;;;;;;11.37;10.27;;;9.90;99.90;;;;;;5008384;28;20807;-58
2021/05/16 05:19:27;;;;;;;10.43;9.47;;;9.90;99.90;;;;;;5005047;28;20320;-57
2021/05/16 05:21:55;;;;;;;10.80;9.80;;;10.00;99.90;;;;;;5004885;28;20237;-58
2021/05/16 05:24:24;;;;;;;12.10;10.90;;;10.00;99.90;;;;;;5008307;28;20233;-57
2021/05/16 05:26:52;;;;;;;11.97;10.90;;;10.00;99.90;;;;;;5008103;28;20242;-57
2021/05/16 05:29:20;;;;;;;12.53;11.33;;;10.20;99.90;;;;;;5006715;28;20789;-58
2021/05/16 05:31:49;;;;;;;11.27;10.27;;;10.30;99.90;;;;;;5007964;28;20405;-59
2021/05/16 05:34:17;;;;;;;10.73;9.80;;;10.40;99.90;;;;;;5008143;28;20333;-57
2021/05/16 05:36:48;;;;;;;10.47;9.47;;;10.40;99.90;;;;;;5007953;28;20244;-58
2021/05/16 05:39:16;;;;;;;10.37;9.37;;;10.40;99.90;;;;;;5006753;28;20241;-57
2021/05/16 05:41:45;;;;;;;10.80;9.83;;;10.50;99.90;;;;;;5008039;28;20241;-58
2021/05/16 05:44:12;;;;;;;10.13;9.23;;;10.60;99.90;;;;;;5008431;28;20321;-59
2021/05/16 05:46:40;;;;;;;10.07;9.17;;;10.70;99.90;;;;;;5007690;28;20736;-58
2021/05/16 05:49:09;;;;;;;9.77;8.80;;;10.80;99.90;;;;;;5007693;28;20245;-58
2021/05/16 05:51:37;;;;;;;10.93;9.83;;;10.80;99.90;;;;;;5021839;28;20241;-58
2021/05/16 05:54:05;;;;;;;10.13;9.23;;;10.80;99.90;;;;;;5026979;28;20250;-59
2021/05/16 05:56:34;;;;;;;11.43;9.57;;;10.90;99.90;;;;;;5027456;28;20272;-58
2021/05/16 05:59:03;;;;;;;10.53;9.63;;;11.00;99.90;;;;;;5026535;28;20365;-58
2021/05/16 06:01:31;;;;;;;10.03;9.13;;;11.10;99.90;;;;;;5026121;28;20228;-59
2021/05/16 06:03:59;;;;;;;10.30;9.33;;;11.10;99.90;;;;;;5027027;28;20652;-59
2021/05/16 06:06:28;;;;;;;10.83;9.73;;;11.10;99.90;;;;;;5027208;28;20244;-59
2021/05/16 06:08:55;;;;;;;10.33;9.43;;;11.10;99.90;;;;;;5026992;28;20241;-59
2021/05/16 06:11:23;;;;;;;11.57;10.47;;;11.10;99.90;;;;;;5026502;28;20253;-58
2021/05/16 06:13:51;;;;;;;11.77;10.77;;;11.20;99.90;;;;;;5026720;28;20234;-58
2021/05/16 06:16:19;;;;;;;15.00;13.60;;;11.20;99.90;;;;;;5026682;28;20242;-58
2021/05/16 06:18:48;;;;;;;13.30;12.10;;;11.30;99.90;;;;;;5022134;28;20242;-59
2021/05/16 06:21:16;;;;;;;12.57;11.47;;;11.40;99.90;;;;;;5027084;28;20646;-56
2021/05/16 06:24:00;;;;;;;14.90;13.60;;;11.40;99.90;;;;;;5027717;28;20237;-57
2021/05/16 06:26:28;;;;;;;14.80;13.30;;;11.40;99.90;;;;;;5028457;28;20273;-58
2021/05/16 06:28:56;;;;;;;15.37;13.87;;;11.60;99.90;;;;;;5028183;28;20293;-59
2021/05/16 06:31:27;;;;;;;15.37;13.97;;;11.90;99.90;;;;;;5027798;28;20233;-59
2021/05/16 06:33:55;;;;;;;14.60;13.40;;;12.10;99.90;;;;;;5028652;28;20243;-58
2021/05/16 06:36:23;;;;;;;14.57;13.17;;;12.20;99.90;;;;;;5027938;28;20239;-59
2021/05/16 06:38:52;;;;;;;14.53;13.20;;;12.40;99.90;;;;;;5027200;28;20708;-59
2021/05/16 06:41:21;;;;;;;13.90;12.70;;;12.70;99.90;;;;;;5028058;28;20247;-59
2021/05/16 06:43:49;;;;;;;14.83;13.43;;;13.10;99.90;;;;;;5028320;28;20346;-58
2021/05/16 06:46:17;;;;;;;15.13;13.67;;;13.30;99.90;;;;;;5028406;28;20245;-58
2021/05/16 06:48:47;;;;;;;15.77;14.40;;;13.20;99.90;;;;;;5027531;28;20299;-58
2021/05/16 06:51:15;;;;;;;16.13;14.70;;;13.20;99.90;;;;;;5027198;28;20597;-59
2021/05/16 06:53:43;;;;;;;16.43;15.07;;;13.30;99.90;;;;;;5027942;28;20293;-58
2021/05/16 06:56:14;;;;;;;18.13;16.50;;;13.40;99.90;;;;;;5028168;28;20290;-58
2021/05/16 06:58:42;;;;;;;18.10;16.60;;;13.20;99.90;;;;;;5027760;28;20240;-59
2021/05/16 07:01:10;;;;;;;18.00;16.40;;;13.10;99.90;;;;;;5027500;28;20247;-58
2021/05/16 07:03:41;;;;;;;18.83;17.23;;;13.00;99.90;;;;;;5023972;28;20251;-58
2021/05/16 07:06:09;;;;;;;18.80;17.13;;;13.20;99.90;;;;;;5026965;28;20254;-59
2021/05/16 07:08:36;;;;;;;18.07;16.47;;;13.60;99.90;;;;;;5028722;28;20687;-56
2021/05/16 07:11:04;;;;;;;19.23;17.47;;;13.90;99.90;;;;;;5026222;28;20235;-59
2021/05/16 07:13:33;;;;;;;19.07;17.30;;;14.30;99.90;;;;;;5027753;28;20274;-59
2021/05/16 07:16:01;;;;;;;21.43;19.53;;;14.30;99.90;;;;;;5024915;28;20737;-59
2021/05/16 07:18:30;;;;;;;23.37;21.20;;;14.30;99.90;;;;;;5025082;28;20239;-59
2021/05/16 07:20:59;;;;;;;22.33;20.27;;;14.30;99.90;;;;;;5025740;28;20247;-59
2021/05/16 07:23:27;;;;;;;22.23;19.93;;;14.00;99.90;;;;;;5025870;28;20253;-60
2021/05/16 07:25:55;;;;;;;19.73;17.83;;;14.10;99.90;;;;;;5029607;28;20330;-60
2021/05/16 07:28:23;;;;;;;17.70;16.20;;;14.50;99.90;;;;;;5025652;28;20702;-59
2021/05/16 07:30:51;;;;;;;17.13;15.30;;;14.90;99.90;;;;;;5023741;28;20983;-59
2021/05/16 07:33:19;;;;;;;16.77;15.10;;;15.40;99.90;;;;;;5027509;28;20240;-58
2021/05/16 07:35:47;;;;;;;15.83;14.43;;;15.70;99.90;;;;;;5027777;28;20758;-59
2021/05/16 07:38:15;;;;;;;14.63;13.40;;;15.70;99.90;;;;;;5027863;28;20252;-59
2021/05/16 07:40:43;;;;;;;14.13;12.93;;;15.40;99.90;;;;;;5029277;28;20699;-60
2021/05/16 07:43:12;;;;;;;13.67;12.47;;;15.10;99.90;;;;;;5023736;28;20285;-59
2021/05/16 07:45:40;;;;;;;12.97;11.77;;;14.70;99.90;;;;;;5034452;28;20488;-59
2021/05/16 07:48:09;;;;;;;12.00;11.00;;;14.30;99.90;;;;;;5025272;28;20236;-58
2021/05/16 07:50:37;;;;;;;11.93;10.87;;;13.70;99.90;;;;;;5023386;28;20231;-58
2021/05/16 07:53:05;;;;;;;13.70;12.60;;;13.40;99.90;;;;;;5034198;28;20236;-59
2021/05/16 07:55:33;;;;;;;13.93;12.63;;;13.20;99.90;;;;;;5029139;28;20245;-58
2021/05/16 07:58:01;;;;;;;14.43;13.13;;;13.10;99.90;;;;;;5030636;28;20289;-59
2021/05/16 08:00:29;;;;;;;15.07;13.67;;;13.00;99.90;;;;;;5030629;28;20711;-59
2021/05/16 08:02:57;;;;;;;14.60;13.20;;;12.90;99.90;;;;;;5031198;28;20288;-57
2021/05/16 08:05:25;;;;;;;15.30;13.93;;;13.00;99.90;;;;;;5032424;28;20319;-58
2021/05/16 08:07:54;;;;;;;15.20;13.80;;;13.00;99.90;;;;;;5030621;28;20822;-58
2021/05/16 08:10:22;;;;;;;15.83;14.33;;;13.10;99.90;;;;;;5030560;28;20332;-58
2021/05/16 08:12:50;;;;;;;15.00;13.80;;;13.20;99.90;;;;;;5028367;28;20242;-60
2021/05/16 08:15:18;;;;;;;16.50;14.87;;;13.10;99.90;;;;;;5028033;28;20874;-58
2021/05/16 08:17:47;;;;;;;16.07;14.57;;;13.10;99.90;;;;;;5030123;28;20657;-57
2021/05/16 08:20:15;;;;;;;16.17;14.37;;;13.10;99.90;;;;;;5030489;28;20236;-59
2021/05/16 08:22:44;;;;;;;16.43;14.70;;;13.30;99.90;;;;;;5029881;28;20293;-59
2021/05/16 08:25:14;;;;;;;16.63;15.13;;;13.60;99.90;;;;;;5030809;28;20243;-60
2021/05/16 08:27:42;;;;;;;16.37;14.70;;;13.90;99.90;;;;;;5030648;28;20235;-58
2021/05/16 08:30:12;;;;;;;16.33;14.83;;;14.20;99.90;;;;;;5030382;28;20272;-58
2021/05/16 08:32:40;;;;;;;15.80;14.30;;;14.40;99.90;;;;;;5030522;28;20649;-60
2021/05/16 08:35:09;;;;;;;15.57;14.07;;;14.40;99.90;;;;;;5030181;28;20236;-58
2021/05/16 08:37:37;;;;;;;15.33;14.03;;;14.40;99.90;;;;;;5029918;28;20650;-59
2021/05/16 08:40:07;;;;;;;15.30;13.80;;;14.50;99.90;;;;;;5029301;28;20235;-59
2021/05/16 08:42:35;;;;;;;15.73;14.30;;;14.60;99.90;;;;;;5030278;28;20261;-59
2021/05/16 08:45:10;;;;;;;14.90;13.50;;;14.60;99.90;;;;;;5030085;28;20236;-59
2021/05/16 08:47:41;;;;;;;16.23;14.60;;;14.60;99.90;;;;;;5029671;28;20243;-59
2021/05/16 08:50:13;;;;;;;16.17;14.53;;;14.50;99.90;;;;;;5029238;28;20252;-58
2021/05/16 08:52:41;;;;;;;15.73;14.23;;;14.40;99.90;;;;;;5029364;28;20650;-58
2021/05/16 08:55:12;;;;;;;15.23;13.73;;;14.50;99.90;;;;;;5029827;28;20266;-58
2021/05/16 08:57:41;;;;;;;15.20;13.80;;;15.00;99.90;;;;;;5029817;28;20240;-59
2021/05/16 09:00:16;;;;;;;15.67;14.17;;;15.20;99.90;;;;;;5029415;28;20330;-58
2021/05/16 09:03:15;;;;;;;13.67;12.57;;;15.50;99.90;;;;;;5045002;28;20244;-59
2021/05/16 09:05:49;;;;;;;13.57;12.13;;;16.40;99.90;;;;;;4988013;28;20234;-58
2021/05/16 09:08:21;;;;;;;12.63;11.33;;;17.10;99.90;;;;;;5021666;28;20285;-59
2021/05/16 09:10:54;;;;;;;11.80;10.70;;;17.10;99.90;;;;;;5025711;28;20236;-60
2021/05/16 09:13:24;;;;;;;12.37;10.57;;;16.80;99.90;;;;;;5027421;28;20236;-60
2021/05/16 09:16:08;;;;;;;12.37;11.23;;;16.20;99.90;;;;;;5028324;28;20301;-60
2021/05/16 09:18:42;;;;;;;12.90;11.70;;;15.50;99.90;;;;;;5027657;28;20294;-59
2021/05/16 09:21:35;;;;;;;14.50;12.40;;;14.90;99.90;;;;;;5025629;28;20642;-59
2021/05/16 09:24:22;;;;;;;12.60;11.40;;;14.30;99.90;;;;;;5027826;28;20239;-59
2021/05/16 09:26:55;;;;;;;11.97;10.70;;;14.00;99.90;;;;;;5027918;28;20243;-60
2021/05/16 09:29:29;;;;;;;13.73;11.93;;;14.00;99.90;;;;;;5027347;28;20236;-59
2021/05/16 09:31:59;;;;;;;13.13;11.83;;;14.00;99.90;;;;;;5027697;28;20651;-60
2021/05/16 09:34:29;;;;;;;14.67;13.17;;;14.00;99.90;;;;;;5027519;28;20247;-59
2021/05/16 09:36:57;;;;;;;15.43;12.97;;;14.10;99.90;;;;;;5027589;28;20318;-59
2021/05/16 09:39:27;;;;;;;14.23;12.83;;;14.10;99.90;;;;;;5027170;28;20620;-58
2021/05/16 09:42:03;;;;;;;15.00;13.47;;;14.10;99.90;;;;;;5027572;28;20327;-58
2021/05/16 09:44:38;;;;;;;14.77;12.93;;;14.10;99.90;;;;;;5026956;28;20519;-59
2021/05/16 09:47:26;;;;;;;14.77;13.27;;;14.00;99.90;;;;;;5027233;28;20259;-60
2021/05/16 09:49:55;;;;;;;14.87;13.37;;;13.90;99.90;;;;;;5027022;28;20261;-58
2021/05/16 09:52:27;;;;;;;16.33;14.33;;;14.00;99.90;;;;;;5028223;28;20636;-57
2021/05/16 09:54:58;;;;;;;16.10;13.50;;;13.90;99.90;;;;;;5028567;28;20707;-59
2021/05/16 09:57:30;;;;;;;16.67;14.63;;;13.90;99.90;;;;;;5028493;28;20236;-59
2021/05/16 09:59:59;;;;;;;16.33;14.63;;;13.90;99.90;;;;;;5027901;28;20718;-58
2021/05/16 10:02:29;;;;;;;18.20;14.50;;;13.90;99.90;;;;;;5028784;28;20267;-60
2021/05/16 10:05:01;;;;;;;18.27;16.10;;;13.90;99.90;;;;;;5025487;28;20266;-57
2021/05/16 10:07:30;;;;;;;20.97;17.17;;;13.90;99.90;;;;;;5024569;28;20236;-58
2021/05/16 10:09:59;;;;;;;15.97;14.33;;;13.90;99.90;;;;;;5026365;28;20321;-58
2021/05/16 10:12:28;;;;;;;21.20;15.27;;;13.80;99.90;;;;;;5022342;28;20258;-56
2021/05/16 10:15:02;;;;;;;19.03;14.37;;;13.60;99.90;;;;;;5026866;28;20251;-58
2021/05/16 10:17:35;;;;;;;17.03;14.20;;;13.30;99.90;;;;;;5025486;28;20285;-58
2021/05/16 10:20:09;;;;;;;18.63;14.00;;;13.10;99.90;;;;;;5026710;28;20234;-58
2021/05/16 10:22:40;;;;;;;14.20;12.53;;;13.00;99.90;;;;;;5028072;28;20289;-59
2021/05/16 10:25:09;;;;;;;10.37;8.30;;;12.90;99.90;;;;;;5025021;28;20777;-60
2021/05/16 10:27:44;;;;;;;7.63;5.03;;;12.70;99.90;;;;;;5027929;28;20242;-56
2021/05/16 10:30:17;;;;;;;8.77;4.93;;;12.50;99.90;;;;;;5024465;28;20676;-59
2021/05/16 10:32:50;;;;;;;5.77;4.00;;;12.50;99.90;;;;;;5027389;28;20251;-59
2021/05/16 10:35:21;;;;;;;6.13;4.30;;;12.50;99.90;;;;;;5025499;28;20234;-59
2021/05/16 10:37:51;;;;;;;6.50;4.50;;;12.50;99.90;;;;;;5028207;28;20314;-58
2021/05/16 10:40:28;;;;;;;6.13;5.03;;;12.50;99.90;;;;;;5027058;28;20295;-58
2021/05/16 10:42:59;;;;;;;8.37;4.83;;;12.60;99.90;;;;;;5027778;28;20714;-59
2021/05/16 10:45:37;;;;;;;10.43;8.47;;;12.70;99.90;;;;;;5027479;28;20619;-59
2021/05/16 10:48:12;;;;;;;8.77;7.87;;;13.10;99.90;;;;;;5026122;28;20238;-58
2021/05/16 10:50:52;;;;;;;11.57;9.13;;;13.30;99.90;;;;;;5026426;28;20698;-59
2021/05/16 10:53:32;;;;;;;8.73;7.30;;;13.50;99.90;;;;;;5026604;28;20224;-58
2021/05/16 10:56:18;;;;;;;9.30;6.83;;;13.70;99.90;;;;;;5027424;28;20227;-57
2021/05/16 10:58:50;;;;;;;8.53;7.03;;;14.10;99.90;;;;;;5025855;28;20244;-59
2021/05/16 11:01:30;;;;;;;8.90;6.10;;;14.50;99.90;;;;;;5025689;28;20240;-59
2021/05/16 11:04:00;;;;;;;7.00;5.83;;;15.10;99.90;;;;;;5022347;28;20286;-59
2021/05/16 11:06:59;;;;;;;7.00;6.10;;;15.50;99.90;;;;;;5021474;28;20244;-58
2021/05/16 11:09:35;;;;;;;7.47;4.97;;;15.50;99.90;;;;;;5025333;28;20228;-59
2021/05/16 11:12:05;;;;;;;7.17;5.03;;;15.40;99.90;;;;;;5025123;28;20232;-59
2021/05/16 11:14:39;;;;;;;6.63;4.80;;;15.20;99.90;;;;;;5025283;28;20243;-59
2021/05/16 11:17:16;;;;;;;5.47;4.73;;;15.00;99.90;;;;;;5023370;28;20240;-59
2021/05/16 11:19:47;;;;;;;7.33;4.90;;;14.70;99.90;;;;;;5020528;28;20289;-59
2021/05/16 11:22:17;;;;;;;7.40;5.40;;;14.30;99.90;;;;;;5024887;28;20248;-59
2021/05/16 11:24:48;;;;;;;8.93;5.50;;;13.90;99.90;;;;;;5025112;28;20239;-57
2021/05/16 11:27:26;;;;;;;6.00;5.00;;;13.60;99.90;;;;;;5029710;28;20238;-58
2021/05/16 11:30:01;;;;;;;6.60;5.20;;;13.40;99.90;;;;;;5028831;28;20235;-59
2021/05/16 11:32:31;;;;;;;6.03;5.27;;;13.20;99.90;;;;;;5026297;28;20243;-59
2021/05/16 11:35:13;;;;;;;5.80;4.70;;;13.30;99.90;;;;;;5028052;28;20623;-58
2021/05/16 11:37:42;;;;;;;7.73;5.67;;;13.20;99.90;;;;;;5027719;28;20240;-58
2021/05/16 11:40:35;;;;;;;7.43;5.33;;;13.10;99.90;;;;;;5027841;28;20656;-58
2021/05/16 11:43:06;;;;;;;8.33;5.70;;;13.20;99.90;;;;;;5026621;28;20728;-60
2021/05/16 11:45:38;;;;;;;8.17;6.07;;;13.40;99.90;;;;;;5027901;28;20669;-58
2021/05/16 11:48:08;;;;;;;7.80;6.10;;;13.80;99.90;;;;;;5027276;28;20243;-59
2021/05/16 11:50:46;;;;;;;8.53;7.27;;;14.00;99.90;;;;;;5025634;28;20272;-58
2021/05/16 11:53:14;;;;;;;7.90;6.63;;;14.20;99.90;;;;;;5009536;28;20696;-59
2021/05/16 11:55:42;;;;;;;10.77;8.10;;;14.10;99.90;;;;;;5010153;28;20236;-59
2021/05/16 11:58:11;;;;;;;12.33;8.60;;;13.80;99.90;;;;;;5016195;28;20290;-59
2021/05/16 12:00:40;;;;;;;9.93;7.70;;;13.50;99.90;;;;;;5029931;28;20244;-59
2021/05/16 12:03:13;;;;;;;6.77;5.27;;;13.30;99.90;;;;;;5028254;28;20314;-57
2021/05/16 12:05:43;;;;;;;6.90;4.80;;;13.10;99.90;;;;;;5028686;28;20235;-58
2021/05/16 12:08:23;;;;;;;6.20;4.23;;;13.00;99.90;;;;;;5027784;28;20250;-59
2021/05/16 12:11:11;;;;;;;4.13;3.43;;;12.90;99.90;;;;;;5012679;28;20654;-59
2021/05/16 12:13:40;;;;;;;4.13;3.23;;;12.80;99.90;;;;;;5016003;28;20253;-58
2021/05/16 12:16:19;;;;;;;4.57;3.17;;;12.80;99.90;;;;;;5035164;28;20301;-58
2021/05/16 12:18:48;;;;;;;3.50;2.67;;;12.80;99.90;;;;;;5016287;28;20271;-59
2021/05/16 12:21:17;;;;;;;4.97;2.70;;;12.80;99.90;;;;;;5017536;28;20298;-59
2021/05/16 12:23:55;;;;;;;4.47;2.90;;;12.90;99.90;;;;;;5012985;28;21386;-60
2021/05/16 12:26:24;;;;;;;3.60;2.33;;;12.90;99.90;;;;;;5015956;28;20247;-60
2021/05/16 12:28:52;;;;;;;2.90;2.10;;;13.10;99.90;;;;;;5020980;28;21103;-60
2021/05/16 12:31:23;;;;;;;2.83;2.37;;;13.30;99.90;;;;;;5019734;28;20785;-59
2021/05/16 12:33:53;;;;;;;4.20;2.90;;;13.50;99.90;;;;;;5015308;28;20347;-59
2021/05/16 12:36:21;;;;;;;3.80;2.83;;;13.70;99.90;;;;;;5023483;28;20248;-59
2021/05/16 12:38:54;;;;;;;4.40;3.27;;;13.80;99.90;;;;;;5015446;28;20251;-59
2021/05/16 12:41:26;;;;;;;3.37;2.83;;;14.20;99.90;;;;;;5010629;28;20794;-58
2021/05/16 12:44:12;;;;;;;5.23;2.17;;;14.50;99.90;;;;;;5023793;28;20240;-59
2021/05/16 12:46:45;;;;;;;3.27;2.50;;;14.90;99.90;;;;;;5011196;28;20247;-58
2021/05/16 12:49:17;;;;;;;3.73;2.43;;;15.10;99.90;;;;;;5009850;28;20667;-58
2021/05/16 12:51:55;;;;;;;4.33;2.47;;;15.20;99.90;;;;;;5015605;28;20535;-59